sensor_id;sensor_type;location;lat;lon;timestamp;P1;durP1;ratioP1;P2;durP2;ratioP2
14770;SDS011;7477;45.222;5.688;2023-06-01T00:00:08;4.15;;;3.08;;
14770;SDS011;7477;45.222;5.688;2023-06-01T00:03:32;4.38;;;3.55;;
14770;SDS011;7477;45.222;5.688;2023-06-01T00:06:51;4.68;;;2.88;;
14770;SDS011;7477;45.222;5.688;2023-06-01T00:10:10;4.55;;;3.22;;
14770;SDS011;7477;45.222;5.688;2023-06-01T00:13:30;4.47;;;3.08;;
14770;SDS011;7477;45.222;5.688;2023-06-01T00:16:49;3.45;;;2.67;;
14770;SDS011;7477;45.222;5.688;2023-06-01T00:20:10;4.30;;;3.20;;
14770;SDS011;7477;45.222;5.688;2023-06-01T00:23:29;5.65;;;3.05;;
14770;SDS011;7477;45.222;5.688;2023-06-01T00:26:49;5.07;;;3.08;;
14770;SDS011;7477;45.222;5.688;2023-06-01T00:30:08;3.50;;;2.72;;
14770;SDS011;7477;45.222;5.688;2023-06-01T00:33:29;4.43;;;3.00;;
14770;SDS011;7477;45.222;5.688;2023-06-01T00:36:48;5.18;;;3.50;;
14770;SDS011;7477;45.222;5.688;2023-06-01T00:40:07;4.45;;;2.85;;
14770;SDS011;7477;45.222;5.688;2023-06-01T00:43:26;5.30;;;3.30;;
14770;SDS011;7477;45.222;5.688;2023-06-01T00:46:46;4.45;;;3.08;;
14770;SDS011;7477;45.222;5.688;2023-06-01T00:50:05;3.97;;;3.28;;
14770;SDS011;7477;45.222;5.688;2023-06-01T00:53:25;4.50;;;3.58;;
14770;SDS011;7477;45.222;5.688;2023-06-01T00:56:44;3.97;;;3.50;;
14770;SDS011;7477;45.222;5.688;2023-06-01T01:00:05;6.60;;;3.42;;
14770;SDS011;7477;45.222;5.688;2023-06-01T01:03:28;5.22;;;3.65;;
14770;SDS011;7477;45.222;5.688;2023-06-01T01:07:00;5.15;;;3.38;;
14770;SDS011;7477;45.222;5.688;2023-06-01T01:14:17;5.82;;;3.40;;
14770;SDS011;7477;45.222;5.688;2023-06-01T01:17:44;4.85;;;3.33;;
14770;SDS011;7477;45.222;5.688;2023-06-01T01:21:06;4.53;;;3.60;;
14770;SDS011;7477;45.222;5.688;2023-06-01T01:32:00;4.95;;;3.53;;
14770;SDS011;7477;45.222;5.688;2023-06-01T01:35:23;4.47;;;3.20;;
14770;SDS011;7477;45.222;5.688;2023-06-01T01:38:44;3.47;;;2.97;;
14770;SDS011;7477;45.222;5.688;2023-06-01T01:42:03;4.75;;;3.40;;
14770;SDS011;7477;45.222;5.688;2023-06-01T01:45:24;3.63;;;3.25;;
14770;SDS011;7477;45.222;5.688;2023-06-01T01:52:35;4.55;;;3.10;;
14770;SDS011;7477;45.222;5.688;2023-06-01T01:55:58;3.60;;;2.75;;
14770;SDS011;7477;45.222;5.688;2023-06-01T01:59:18;4.05;;;2.92;;
14770;SDS011;7477;45.222;5.688;2023-06-01T02:02:38;3.60;;;3.30;;
14770;SDS011;7477;45.222;5.688;2023-06-01T02:05:58;5.28;;;3.45;;
14770;SDS011;7477;45.222;5.688;2023-06-01T02:09:17;3.88;;;2.92;;
14770;SDS011;7477;45.222;5.688;2023-06-01T02:12:36;5.47;;;3.50;;
14770;SDS011;7477;45.222;5.688;2023-06-01T02:15:56;4.00;;;3.28;;
14770;SDS011;7477;45.222;5.688;2023-06-01T02:19:15;4.03;;;3.20;;
14770;SDS011;7477;45.222;5.688;2023-06-01T02:22:35;7.45;;;3.58;;
14770;SDS011;7477;45.222;5.688;2023-06-01T02:25:54;3.95;;;3.05;;
14770;SDS011;7477;45.222;5.688;2023-06-01T02:29:14;4.30;;;3.33;;
14770;SDS011;7477;45.222;5.688;2023-06-01T02:32:34;3.92;;;3.17;;
14770;SDS011;7477;45.222;5.688;2023-06-01T02:35:53;3.72;;;3.05;;
14770;SDS011;7477;45.222;5.688;2023-06-01T02:39:12;4.65;;;3.80;;
14770;SDS011;7477;45.222;5.688;2023-06-01T02:42:32;4.60;;;3.30;;
14770;SDS011;7477;45.222;5.688;2023-06-01T02:45:51;7.80;;;3.78;;
14770;SDS011;7477;45.222;5.688;2023-06-01T02:49:10;6.93;;;3.20;;
14770;SDS011;7477;45.222;5.688;2023-06-01T02:52:29;4.22;;;3.50;;
14770;SDS011;7477;45.222;5.688;2023-06-01T02:55:50;4.45;;;3.42;;
14770;SDS011;7477;45.222;5.688;2023-06-01T02:59:09;5.15;;;3.50;;
14770;SDS011;7477;45.222;5.688;2023-06-01T03:02:28;4.88;;;3.05;;
14770;SDS011;7477;45.222;5.688;2023-06-01T03:05:48;4.80;;;3.38;;
14770;SDS011;7477;45.222;5.688;2023-06-01T03:09:07;7.20;;;3.47;;
14770;SDS011;7477;45.222;5.688;2023-06-01T03:12:32;7.68;;;3.95;;
14770;SDS011;7477;45.222;5.688;2023-06-01T03:15:52;5.68;;;3.63;;
14770;SDS011;7477;45.222;5.688;2023-06-01T03:19:11;4.28;;;3.38;;
14770;SDS011;7477;45.222;5.688;2023-06-01T03:22:30;4.68;;;3.53;;
14770;SDS011;7477;45.222;5.688;2023-06-01T03:25:49;5.10;;;3.13;;
14770;SDS011;7477;45.222;5.688;2023-06-01T03:29:09;3.10;;;2.80;;
14770;SDS011;7477;45.222;5.688;2023-06-01T03:32:28;4.57;;;3.20;;
14770;SDS011;7477;45.222;5.688;2023-06-01T03:35:48;3.65;;;3.28;;
14770;SDS011;7477;45.222;5.688;2023-06-01T03:39:08;6.88;;;3.40;;
14770;SDS011;7477;45.222;5.688;2023-06-01T03:42:27;5.55;;;3.50;;
14770;SDS011;7477;45.222;5.688;2023-06-01T03:45:46;3.35;;;3.05;;
14770;SDS011;7477;45.222;5.688;2023-06-01T03:49:05;4.05;;;3.13;;
14770;SDS011;7477;45.222;5.688;2023-06-01T03:52:25;3.75;;;3.25;;
14770;SDS011;7477;45.222;5.688;2023-06-01T03:55:44;6.32;;;3.28;;
14770;SDS011;7477;45.222;5.688;2023-06-01T03:59:04;4.53;;;3.38;;
14770;SDS011;7477;45.222;5.688;2023-06-01T04:02:25;3.50;;;3.17;;
14770;SDS011;7477;45.222;5.688;2023-06-01T04:05:45;4.95;;;3.28;;
14770;SDS011;7477;45.222;5.688;2023-06-01T04:09:08;6.28;;;3.60;;
14770;SDS011;7477;45.222;5.688;2023-06-01T04:12:28;5.07;;;2.80;;
14770;SDS011;7477;45.222;5.688;2023-06-01T04:15:47;4.03;;;3.35;;
14770;SDS011;7477;45.222;5.688;2023-06-01T04:19:06;3.70;;;3.15;;
14770;SDS011;7477;45.222;5.688;2023-06-01T04:22:25;4.75;;;3.42;;
14770;SDS011;7477;45.222;5.688;2023-06-01T04:25:44;3.95;;;3.38;;
14770;SDS011;7477;45.222;5.688;2023-06-01T04:29:03;6.13;;;3.78;;
14770;SDS011;7477;45.222;5.688;2023-06-01T04:32:24;5.70;;;3.58;;
14770;SDS011;7477;45.222;5.688;2023-06-01T04:35:44;3.90;;;3.20;;
14770;SDS011;7477;45.222;5.688;2023-06-01T04:39:07;5.05;;;3.70;;
14770;SDS011;7477;45.222;5.688;2023-06-01T04:42:27;4.03;;;3.30;;
14770;SDS011;7477;45.222;5.688;2023-06-01T04:45:48;5.50;;;3.28;;
14770;SDS011;7477;45.222;5.688;2023-06-01T04:49:08;5.90;;;3.65;;
14770;SDS011;7477;45.222;5.688;2023-06-01T04:52:30;5.88;;;3.65;;
14770;SDS011;7477;45.222;5.688;2023-06-01T04:55:49;5.38;;;3.53;;
14770;SDS011;7477;45.222;5.688;2023-06-01T04:59:09;5.13;;;3.60;;
14770;SDS011;7477;45.222;5.688;2023-06-01T05:02:29;5.90;;;3.30;;
14770;SDS011;7477;45.222;5.688;2023-06-01T05:05:49;4.90;;;3.50;;
14770;SDS011;7477;45.222;5.688;2023-06-01T05:09:08;3.97;;;3.47;;
14770;SDS011;7477;45.222;5.688;2023-06-01T05:12:27;5.13;;;3.17;;
14770;SDS011;7477;45.222;5.688;2023-06-01T05:15:46;6.50;;;3.92;;
14770;SDS011;7477;45.222;5.688;2023-06-01T05:19:05;7.25;;;4.20;;
14770;SDS011;7477;45.222;5.688;2023-06-01T05:22:26;5.63;;;3.70;;
14770;SDS011;7477;45.222;5.688;2023-06-01T05:25:45;3.80;;;3.50;;
14770;SDS011;7477;45.222;5.688;2023-06-01T05:29:05;6.20;;;3.28;;
14770;SDS011;7477;45.222;5.688;2023-06-01T05:32:24;4.65;;;3.50;;
14770;SDS011;7477;45.222;5.688;2023-06-01T05:35:43;11.25;;;3.80;;
14770;SDS011;7477;45.222;5.688;2023-06-01T05:39:03;4.45;;;3.22;;
14770;SDS011;7477;45.222;5.688;2023-06-01T05:42:22;5.97;;;3.60;;
14770;SDS011;7477;45.222;5.688;2023-06-01T05:45:41;10.25;;;3.80;;
14770;SDS011;7477;45.222;5.688;2023-06-01T05:49:01;4.55;;;3.97;;
14770;SDS011;7477;45.222;5.688;2023-06-01T05:52:21;6.97;;;4.32;;
14770;SDS011;7477;45.222;5.688;2023-06-01T05:55:40;6.10;;;4.40;;
14770;SDS011;7477;45.222;5.688;2023-06-01T05:58:59;5.43;;;4.45;;
14770;SDS011;7477;45.222;5.688;2023-06-01T06:02:18;8.27;;;5.15;;
14770;SDS011;7477;45.222;5.688;2023-06-01T06:05:37;5.28;;;4.55;;
14770;SDS011;7477;45.222;5.688;2023-06-01T06:08:56;6.10;;;4.13;;
14770;SDS011;7477;45.222;5.688;2023-06-01T06:12:15;6.03;;;4.40;;
14770;SDS011;7477;45.222;5.688;2023-06-01T06:15:35;4.55;;;3.92;;
14770;SDS011;7477;45.222;5.688;2023-06-01T06:18:54;5.97;;;4.47;;
14770;SDS011;7477;45.222;5.688;2023-06-01T06:22:13;6.28;;;4.05;;
14770;SDS011;7477;45.222;5.688;2023-06-01T06:25:33;6.05;;;3.95;;
14770;SDS011;7477;45.222;5.688;2023-06-01T06:28:52;6.07;;;3.75;;
14770;SDS011;7477;45.222;5.688;2023-06-01T06:32:11;6.85;;;4.28;;
14770;SDS011;7477;45.222;5.688;2023-06-01T06:35:30;6.95;;;4.07;;
14770;SDS011;7477;45.222;5.688;2023-06-01T06:38:50;6.25;;;4.40;;
14770;SDS011;7477;45.222;5.688;2023-06-01T06:42:09;7.93;;;4.30;;
14770;SDS011;7477;45.222;5.688;2023-06-01T06:45:29;8.90;;;4.72;;
14770;SDS011;7477;45.222;5.688;2023-06-01T06:48:48;6.88;;;4.45;;
14770;SDS011;7477;45.222;5.688;2023-06-01T06:52:08;4.78;;;4.00;;
14770;SDS011;7477;45.222;5.688;2023-06-01T06:55:28;5.07;;;3.85;;
14770;SDS011;7477;45.222;5.688;2023-06-01T06:58:48;5.13;;;4.38;;
14770;SDS011;7477;45.222;5.688;2023-06-01T07:02:07;5.05;;;4.00;;
14770;SDS011;7477;45.222;5.688;2023-06-01T07:05:26;4.32;;;3.92;;
14770;SDS011;7477;45.222;5.688;2023-06-01T07:08:45;6.22;;;4.05;;
14770;SDS011;7477;45.222;5.688;2023-06-01T07:12:04;6.80;;;4.03;;
14770;SDS011;7477;45.222;5.688;2023-06-01T07:15:24;4.18;;;3.53;;
14770;SDS011;7477;45.222;5.688;2023-06-01T07:18:44;4.55;;;3.85;;
14770;SDS011;7477;45.222;5.688;2023-06-01T07:22:03;4.47;;;3.70;;
14770;SDS011;7477;45.222;5.688;2023-06-01T07:25:23;4.38;;;3.85;;
14770;SDS011;7477;45.222;5.688;2023-06-01T07:28:42;4.53;;;3.70;;
14770;SDS011;7477;45.222;5.688;2023-06-01T07:32:02;5.28;;;3.47;;
14770;SDS011;7477;45.222;5.688;2023-06-01T07:35:21;4.88;;;3.58;;
14770;SDS011;7477;45.222;5.688;2023-06-01T07:38:41;4.47;;;3.60;;
14770;SDS011;7477;45.222;5.688;2023-06-01T07:42:00;4.47;;;3.67;;
14770;SDS011;7477;45.222;5.688;2023-06-01T07:45:20;6.18;;;3.47;;
14770;SDS011;7477;45.222;5.688;2023-06-01T07:48:39;3.97;;;3.38;;
14770;SDS011;7477;45.222;5.688;2023-06-01T07:51:58;5.00;;;3.70;;
14770;SDS011;7477;45.222;5.688;2023-06-01T07:55:17;4.15;;;3.45;;
14770;SDS011;7477;45.222;5.688;2023-06-01T07:58:37;7.47;;;3.65;;
14770;SDS011;7477;45.222;5.688;2023-06-01T08:01:56;6.93;;;3.53;;
14770;SDS011;7477;45.222;5.688;2023-06-01T08:05:16;9.45;;;4.28;;
14770;SDS011;7477;45.222;5.688;2023-06-01T08:08:36;4.60;;;3.10;;
14770;SDS011;7477;45.222;5.688;2023-06-01T08:11:55;4.40;;;3.45;;
14770;SDS011;7477;45.222;5.688;2023-06-01T08:15:14;4.93;;;3.65;;
14770;SDS011;7477;45.222;5.688;2023-06-01T08:18:34;4.50;;;3.72;;
14770;SDS011;7477;45.222;5.688;2023-06-01T08:21:54;5.35;;;3.30;;
14770;SDS011;7477;45.222;5.688;2023-06-01T08:25:13;9.63;;;3.90;;
14770;SDS011;7477;45.222;5.688;2023-06-01T08:28:32;4.63;;;3.28;;
14770;SDS011;7477;45.222;5.688;2023-06-01T08:31:52;3.22;;;2.80;;
14770;SDS011;7477;45.222;5.688;2023-06-01T08:35:11;3.38;;;2.97;;
14770;SDS011;7477;45.222;5.688;2023-06-01T08:38:32;4.18;;;3.28;;
14770;SDS011;7477;45.222;5.688;2023-06-01T08:45:44;6.20;;;4.15;;
14770;SDS011;7477;45.222;5.688;2023-06-01T08:49:06;4.35;;;3.45;;
14770;SDS011;7477;45.222;5.688;2023-06-01T08:52:30;5.80;;;2.90;;
14770;SDS011;7477;45.222;5.688;2023-06-01T08:55:52;4.78;;;3.70;;
14770;SDS011;7477;45.222;5.688;2023-06-01T08:59:13;3.50;;;3.15;;
14770;SDS011;7477;45.222;5.688;2023-06-01T09:02:33;4.35;;;3.75;;
14770;SDS011;7477;45.222;5.688;2023-06-01T09:05:52;3.80;;;3.05;;
14770;SDS011;7477;45.222;5.688;2023-06-01T09:09:12;4.53;;;3.83;;
14770;SDS011;7477;45.222;5.688;2023-06-01T09:12:31;3.95;;;3.28;;
14770;SDS011;7477;45.222;5.688;2023-06-01T09:15:52;4.10;;;3.40;;
14770;SDS011;7477;45.222;5.688;2023-06-01T09:19:11;3.35;;;2.72;;
14770;SDS011;7477;45.222;5.688;2023-06-01T09:22:41;5.72;;;2.92;;
14770;SDS011;7477;45.222;5.688;2023-06-01T09:26:05;2.92;;;2.55;;
14770;SDS011;7477;45.222;5.688;2023-06-01T09:29:25;3.30;;;2.97;;
14770;SDS011;7477;45.222;5.688;2023-06-01T09:32:45;3.20;;;2.90;;
14770;SDS011;7477;45.222;5.688;2023-06-01T09:36:19;5.00;;;3.40;;
14770;SDS011;7477;45.222;5.688;2023-06-01T09:39:43;3.40;;;3.08;;
14770;SDS011;7477;45.222;5.688;2023-06-01T09:43:18;4.20;;;3.40;;
14770;SDS011;7477;45.222;5.688;2023-06-01T09:46:47;3.78;;;3.30;;
14770;SDS011;7477;45.222;5.688;2023-06-01T09:50:07;5.50;;;3.40;;
14770;SDS011;7477;45.222;5.688;2023-06-01T09:53:27;2.50;;;2.28;;
14770;SDS011;7477;45.222;5.688;2023-06-01T09:56:46;3.03;;;2.70;;
14770;SDS011;7477;45.222;5.688;2023-06-01T10:00:06;3.08;;;2.28;;
14770;SDS011;7477;45.222;5.688;2023-06-01T10:03:26;2.50;;;2.25;;
14770;SDS011;7477;45.222;5.688;2023-06-01T10:06:46;10.23;;;3.80;;
14770;SDS011;7477;45.222;5.688;2023-06-01T10:10:05;3.55;;;2.70;;
14770;SDS011;7477;45.222;5.688;2023-06-01T10:13:26;3.83;;;3.13;;
14770;SDS011;7477;45.222;5.688;2023-06-01T10:16:45;6.65;;;4.30;;
14770;SDS011;7477;45.222;5.688;2023-06-01T10:20:06;5.95;;;4.50;;
14770;SDS011;7477;45.222;5.688;2023-06-01T10:23:26;4.03;;;2.58;;
14770;SDS011;7477;45.222;5.688;2023-06-01T10:30:29;3.83;;;3.10;;
14770;SDS011;7477;45.222;5.688;2023-06-01T10:33:52;3.72;;;2.97;;
14770;SDS011;7477;45.222;5.688;2023-06-01T10:37:14;5.20;;;3.45;;
14770;SDS011;7477;45.222;5.688;2023-06-01T10:40:34;4.88;;;3.25;;
14770;SDS011;7477;45.222;5.688;2023-06-01T10:43:54;6.25;;;4.22;;
14770;SDS011;7477;45.222;5.688;2023-06-01T10:50:40;3.83;;;3.40;;
14770;SDS011;7477;45.222;5.688;2023-06-01T10:57:43;6.53;;;4.13;;
14770;SDS011;7477;45.222;5.688;2023-06-01T11:01:04;4.05;;;3.25;;
14770;SDS011;7477;45.222;5.688;2023-06-01T11:04:34;7.65;;;3.55;;
14770;SDS011;7477;45.222;5.688;2023-06-01T11:07:55;4.38;;;3.63;;
14770;SDS011;7477;45.222;5.688;2023-06-01T11:11:14;3.67;;;3.38;;
14770;SDS011;7477;45.222;5.688;2023-06-01T11:14:35;5.18;;;4.35;;
14770;SDS011;7477;45.222;5.688;2023-06-01T11:17:54;7.63;;;5.10;;
14770;SDS011;7477;45.222;5.688;2023-06-01T11:21:16;5.90;;;4.50;;
14770;SDS011;7477;45.222;5.688;2023-06-01T11:24:36;6.00;;;4.80;;
14770;SDS011;7477;45.222;5.688;2023-06-01T11:27:56;6.65;;;4.38;;
14770;SDS011;7477;45.222;5.688;2023-06-01T11:31:16;6.25;;;3.72;;
14770;SDS011;7477;45.222;5.688;2023-06-01T11:34:38;4.95;;;3.83;;
14770;SDS011;7477;45.222;5.688;2023-06-01T11:38:02;5.50;;;4.22;;
14770;SDS011;7477;45.222;5.688;2023-06-01T11:41:22;5.15;;;4.10;;
14770;SDS011;7477;45.222;5.688;2023-06-01T11:44:42;5.20;;;4.25;;
14770;SDS011;7477;45.222;5.688;2023-06-01T11:48:10;4.03;;;3.58;;
14770;SDS011;7477;45.222;5.688;2023-06-01T11:51:30;4.65;;;3.92;;
14770;SDS011;7477;45.222;5.688;2023-06-01T11:54:51;6.15;;;3.95;;
14770;SDS011;7477;45.222;5.688;2023-06-01T11:58:11;6.43;;;4.25;;
14770;SDS011;7477;45.222;5.688;2023-06-01T12:01:30;5.65;;;4.43;;
14770;SDS011;7477;45.222;5.688;2023-06-01T12:04:56;4.78;;;4.32;;
14770;SDS011;7477;45.222;5.688;2023-06-01T12:08:18;6.43;;;4.28;;
14770;SDS011;7477;45.222;5.688;2023-06-01T12:11:39;5.97;;;5.07;;
14770;SDS011;7477;45.222;5.688;2023-06-01T12:15:01;5.40;;;4.30;;
14770;SDS011;7477;45.222;5.688;2023-06-01T12:18:30;5.68;;;4.60;;
14770;SDS011;7477;45.222;5.688;2023-06-01T12:21:50;6.53;;;4.45;;
14770;SDS011;7477;45.222;5.688;2023-06-01T12:25:11;7.53;;;4.35;;
14770;SDS011;7477;45.222;5.688;2023-06-01T12:28:46;7.13;;;4.38;;
14770;SDS011;7477;45.222;5.688;2023-06-01T12:32:07;6.03;;;4.10;;
14770;SDS011;7477;45.222;5.688;2023-06-01T12:35:27;5.53;;;4.22;;
14770;SDS011;7477;45.222;5.688;2023-06-01T12:38:50;15.05;;;4.88;;
14770;SDS011;7477;45.222;5.688;2023-06-01T12:42:10;5.00;;;3.80;;
14770;SDS011;7477;45.222;5.688;2023-06-01T12:45:36;8.45;;;4.65;;
14770;SDS011;7477;45.222;5.688;2023-06-01T12:49:16;4.75;;;4.25;;
14770;SDS011;7477;45.222;5.688;2023-06-01T12:52:36;6.15;;;4.20;;
14770;SDS011;7477;45.222;5.688;2023-06-01T12:55:56;7.32;;;4.70;;
14770;SDS011;7477;45.222;5.688;2023-06-01T12:59:15;4.93;;;4.18;;
14770;SDS011;7477;45.222;5.688;2023-06-01T13:02:35;4.28;;;3.88;;
14770;SDS011;7477;45.222;5.688;2023-06-01T13:05:54;4.97;;;4.22;;
14770;SDS011;7477;45.222;5.688;2023-06-01T13:09:14;5.30;;;4.38;;
14770;SDS011;7477;45.222;5.688;2023-06-01T13:12:34;5.10;;;4.18;;
14770;SDS011;7477;45.222;5.688;2023-06-01T13:15:53;5.75;;;3.90;;
14770;SDS011;7477;45.222;5.688;2023-06-01T13:19:13;5.35;;;4.00;;
14770;SDS011;7477;45.222;5.688;2023-06-01T13:22:32;5.28;;;4.35;;
14770;SDS011;7477;45.222;5.688;2023-06-01T13:25:52;5.13;;;4.05;;
14770;SDS011;7477;45.222;5.688;2023-06-01T13:29:12;11.35;;;4.25;;
14770;SDS011;7477;45.222;5.688;2023-06-01T13:32:31;6.13;;;4.45;;
14770;SDS011;7477;45.222;5.688;2023-06-01T13:35:51;4.60;;;3.70;;
14770;SDS011;7477;45.222;5.688;2023-06-01T13:39:10;4.82;;;3.88;;
14770;SDS011;7477;45.222;5.688;2023-06-01T13:42:29;4.75;;;4.03;;
14770;SDS011;7477;45.222;5.688;2023-06-01T13:45:49;5.38;;;3.95;;
14770;SDS011;7477;45.222;5.688;2023-06-01T13:49:08;6.15;;;4.00;;
14770;SDS011;7477;45.222;5.688;2023-06-01T13:52:28;11.52;;;4.20;;
14770;SDS011;7477;45.222;5.688;2023-06-01T13:55:47;5.32;;;3.83;;
14770;SDS011;7477;45.222;5.688;2023-06-01T13:59:07;4.00;;;3.60;;
14770;SDS011;7477;45.222;5.688;2023-06-01T14:02:26;4.90;;;3.92;;
14770;SDS011;7477;45.222;5.688;2023-06-01T14:05:45;9.52;;;4.35;;
14770;SDS011;7477;45.222;5.688;2023-06-01T14:09:04;6.00;;;4.47;;
14770;SDS011;7477;45.222;5.688;2023-06-01T14:12:23;5.43;;;4.40;;
14770;SDS011;7477;45.222;5.688;2023-06-01T14:15:42;5.63;;;4.38;;
14770;SDS011;7477;45.222;5.688;2023-06-01T14:19:02;4.57;;;3.90;;
14770;SDS011;7477;45.222;5.688;2023-06-01T14:22:21;5.43;;;3.60;;
14770;SDS011;7477;45.222;5.688;2023-06-01T14:25:40;4.97;;;3.90;;
14770;SDS011;7477;45.222;5.688;2023-06-01T14:29:00;4.70;;;3.90;;
14770;SDS011;7477;45.222;5.688;2023-06-01T14:32:19;9.02;;;4.10;;
14770;SDS011;7477;45.222;5.688;2023-06-01T14:35:39;7.28;;;3.63;;
14770;SDS011;7477;45.222;5.688;2023-06-01T14:38:58;4.43;;;3.97;;
14770;SDS011;7477;45.222;5.688;2023-06-01T14:42:18;5.13;;;3.63;;
14770;SDS011;7477;45.222;5.688;2023-06-01T14:45:37;5.25;;;3.85;;
14770;SDS011;7477;45.222;5.688;2023-06-01T14:48:56;7.45;;;4.10;;
14770;SDS011;7477;45.222;5.688;2023-06-01T14:52:18;4.95;;;3.70;;
14770;SDS011;7477;45.222;5.688;2023-06-01T14:55:39;4.15;;;3.53;;
14770;SDS011;7477;45.222;5.688;2023-06-01T14:58:59;7.78;;;4.25;;
14770;SDS011;7477;45.222;5.688;2023-06-01T15:02:18;6.47;;;4.18;;
14770;SDS011;7477;45.222;5.688;2023-06-01T15:05:38;4.60;;;4.05;;
14770;SDS011;7477;45.222;5.688;2023-06-01T15:08:58;5.20;;;3.80;;
14770;SDS011;7477;45.222;5.688;2023-06-01T15:12:17;4.97;;;3.28;;
14770;SDS011;7477;45.222;5.688;2023-06-01T15:15:36;6.97;;;3.83;;
14770;SDS011;7477;45.222;5.688;2023-06-01T15:18:55;4.70;;;3.72;;
14770;SDS011;7477;45.222;5.688;2023-06-01T15:22:15;7.20;;;4.18;;
14770;SDS011;7477;45.222;5.688;2023-06-01T15:25:34;4.47;;;4.05;;
14770;SDS011;7477;45.222;5.688;2023-06-01T15:28:53;5.90;;;3.97;;
14770;SDS011;7477;45.222;5.688;2023-06-01T15:32:12;4.78;;;3.78;;
14770;SDS011;7477;45.222;5.688;2023-06-01T15:35:31;6.90;;;3.90;;
14770;SDS011;7477;45.222;5.688;2023-06-01T15:38:50;4.97;;;4.00;;
14770;SDS011;7477;45.222;5.688;2023-06-01T15:42:09;5.80;;;4.10;;
14770;SDS011;7477;45.222;5.688;2023-06-01T15:45:29;4.15;;;3.75;;
14770;SDS011;7477;45.222;5.688;2023-06-01T15:48:49;5.13;;;4.25;;
14770;SDS011;7477;45.222;5.688;2023-06-01T15:52:09;4.88;;;3.92;;
14770;SDS011;7477;45.222;5.688;2023-06-01T15:55:28;6.10;;;4.57;;
14770;SDS011;7477;45.222;5.688;2023-06-01T15:58:47;4.30;;;3.90;;
14770;SDS011;7477;45.222;5.688;2023-06-01T16:02:08;3.92;;;3.53;;
14770;SDS011;7477;45.222;5.688;2023-06-01T16:05:27;5.97;;;3.83;;
14770;SDS011;7477;45.222;5.688;2023-06-01T16:08:46;7.18;;;4.07;;
14770;SDS011;7477;45.222;5.688;2023-06-01T16:12:05;5.30;;;4.15;;
14770;SDS011;7477;45.222;5.688;2023-06-01T16:15:25;9.60;;;4.38;;
14770;SDS011;7477;45.222;5.688;2023-06-01T16:18:44;5.10;;;4.03;;
14770;SDS011;7477;45.222;5.688;2023-06-01T16:22:03;4.65;;;4.10;;
14770;SDS011;7477;45.222;5.688;2023-06-01T16:25:23;4.30;;;3.90;;
14770;SDS011;7477;45.222;5.688;2023-06-01T16:28:44;4.65;;;4.05;;
14770;SDS011;7477;45.222;5.688;2023-06-01T16:32:08;5.40;;;4.65;;
14770;SDS011;7477;45.222;5.688;2023-06-01T16:35:27;5.18;;;3.50;;
14770;SDS011;7477;45.222;5.688;2023-06-01T16:38:47;6.22;;;4.45;;
14770;SDS011;7477;45.222;5.688;2023-06-01T16:42:06;4.18;;;3.75;;
14770;SDS011;7477;45.222;5.688;2023-06-01T16:45:26;5.38;;;4.85;;
14770;SDS011;7477;45.222;5.688;2023-06-01T16:48:45;4.32;;;3.88;;
14770;SDS011;7477;45.222;5.688;2023-06-01T16:52:05;4.85;;;4.25;;
14770;SDS011;7477;45.222;5.688;2023-06-01T16:55:24;5.50;;;4.45;;
14770;SDS011;7477;45.222;5.688;2023-06-01T16:58:45;4.70;;;4.10;;
14770;SDS011;7477;45.222;5.688;2023-06-01T17:02:04;4.82;;;4.20;;
14770;SDS011;7477;45.222;5.688;2023-06-01T17:05:23;6.88;;;4.13;;
14770;SDS011;7477;45.222;5.688;2023-06-01T17:08:45;4.90;;;4.40;;
14770;SDS011;7477;45.222;5.688;2023-06-01T17:12:04;5.25;;;3.90;;
14770;SDS011;7477;45.222;5.688;2023-06-01T17:15:23;5.78;;;4.20;;
14770;SDS011;7477;45.222;5.688;2023-06-01T17:18:43;4.65;;;3.58;;
14770;SDS011;7477;45.222;5.688;2023-06-01T17:22:03;6.03;;;3.80;;
14770;SDS011;7477;45.222;5.688;2023-06-01T17:25:24;5.40;;;3.80;;
14770;SDS011;7477;45.222;5.688;2023-06-01T17:28:43;8.25;;;3.80;;
14770;SDS011;7477;45.222;5.688;2023-06-01T17:32:02;5.45;;;3.83;;
14770;SDS011;7477;45.222;5.688;2023-06-01T17:35:21;5.63;;;4.38;;
14770;SDS011;7477;45.222;5.688;2023-06-01T17:38:41;6.70;;;3.88;;
14770;SDS011;7477;45.222;5.688;2023-06-01T17:42:02;5.75;;;4.05;;
14770;SDS011;7477;45.222;5.688;2023-06-01T17:45:21;5.38;;;4.03;;
14770;SDS011;7477;45.222;5.688;2023-06-01T17:48:41;4.70;;;3.83;;
14770;SDS011;7477;45.222;5.688;2023-06-01T17:52:00;6.43;;;3.88;;
14770;SDS011;7477;45.222;5.688;2023-06-01T17:55:20;4.53;;;4.10;;
14770;SDS011;7477;45.222;5.688;2023-06-01T17:58:39;8.02;;;4.50;;
14770;SDS011;7477;45.222;5.688;2023-06-01T18:01:59;5.93;;;4.15;;
14770;SDS011;7477;45.222;5.688;2023-06-01T18:05:18;5.88;;;4.00;;
14770;SDS011;7477;45.222;5.688;2023-06-01T18:08:37;5.85;;;4.35;;
14770;SDS011;7477;45.222;5.688;2023-06-01T18:11:56;4.88;;;3.90;;
14770;SDS011;7477;45.222;5.688;2023-06-01T18:15:15;5.50;;;4.03;;
14770;SDS011;7477;45.222;5.688;2023-06-01T18:18:35;6.40;;;4.28;;
14770;SDS011;7477;45.222;5.688;2023-06-01T18:21:54;5.13;;;4.28;;
14770;SDS011;7477;45.222;5.688;2023-06-01T18:25:13;5.20;;;4.38;;
14770;SDS011;7477;45.222;5.688;2023-06-01T18:28:33;4.57;;;3.90;;
14770;SDS011;7477;45.222;5.688;2023-06-01T18:31:52;5.85;;;4.45;;
14770;SDS011;7477;45.222;5.688;2023-06-01T18:35:14;4.90;;;4.40;;
14770;SDS011;7477;45.222;5.688;2023-06-01T18:38:33;6.25;;;4.75;;
14770;SDS011;7477;45.222;5.688;2023-06-01T18:41:52;7.05;;;4.20;;
14770;SDS011;7477;45.222;5.688;2023-06-01T18:45:11;5.18;;;4.18;;
14770;SDS011;7477;45.222;5.688;2023-06-01T18:48:31;9.38;;;4.15;;
14770;SDS011;7477;45.222;5.688;2023-06-01T18:51:50;6.05;;;4.18;;
14770;SDS011;7477;45.222;5.688;2023-06-01T18:55:11;5.40;;;4.72;;
14770;SDS011;7477;45.222;5.688;2023-06-01T18:58:32;5.10;;;4.60;;
14770;SDS011;7477;45.222;5.688;2023-06-01T19:01:51;6.65;;;4.85;;
14770;SDS011;7477;45.222;5.688;2023-06-01T19:05:10;7.55;;;4.60;;
14770;SDS011;7477;45.222;5.688;2023-06-01T19:08:30;4.60;;;4.18;;
14770;SDS011;7477;45.222;5.688;2023-06-01T19:11:50;4.28;;;3.70;;
14770;SDS011;7477;45.222;5.688;2023-06-01T19:15:10;4.05;;;3.65;;
14770;SDS011;7477;45.222;5.688;2023-06-01T19:18:30;4.95;;;3.83;;
14770;SDS011;7477;45.222;5.688;2023-06-01T19:21:50;7.15;;;3.60;;
14770;SDS011;7477;45.222;5.688;2023-06-01T19:25:09;4.35;;;3.55;;
14770;SDS011;7477;45.222;5.688;2023-06-01T19:28:29;6.18;;;3.92;;
14770;SDS011;7477;45.222;5.688;2023-06-01T19:31:49;4.32;;;3.17;;
14770;SDS011;7477;45.222;5.688;2023-06-01T19:35:08;3.58;;;2.88;;
14770;SDS011;7477;45.222;5.688;2023-06-01T19:38:29;6.47;;;3.20;;
14770;SDS011;7477;45.222;5.688;2023-06-01T19:41:50;6.90;;;3.78;;
14770;SDS011;7477;45.222;5.688;2023-06-01T19:45:09;4.78;;;3.70;;
14770;SDS011;7477;45.222;5.688;2023-06-01T19:48:34;6.88;;;3.50;;
14770;SDS011;7477;45.222;5.688;2023-06-01T19:51:53;6.57;;;3.92;;
14770;SDS011;7477;45.222;5.688;2023-06-01T19:55:13;7.75;;;4.05;;
14770;SDS011;7477;45.222;5.688;2023-06-01T19:58:33;5.97;;;3.60;;
14770;SDS011;7477;45.222;5.688;2023-06-01T20:01:53;7.13;;;4.15;;
14770;SDS011;7477;45.222;5.688;2023-06-01T20:05:15;8.13;;;3.90;;
14770;SDS011;7477;45.222;5.688;2023-06-01T20:08:39;7.68;;;3.55;;
14770;SDS011;7477;45.222;5.688;2023-06-01T20:11:58;4.57;;;3.78;;
14770;SDS011;7477;45.222;5.688;2023-06-01T20:15:26;7.57;;;3.67;;
14770;SDS011;7477;45.222;5.688;2023-06-01T20:18:47;4.90;;;4.40;;
14770;SDS011;7477;45.222;5.688;2023-06-01T20:22:06;5.10;;;3.83;;
14770;SDS011;7477;45.222;5.688;2023-06-01T20:25:26;5.25;;;3.53;;
14770;SDS011;7477;45.222;5.688;2023-06-01T20:28:47;10.43;;;4.03;;
14770;SDS011;7477;45.222;5.688;2023-06-01T20:32:08;5.07;;;3.53;;
14770;SDS011;7477;45.222;5.688;2023-06-01T20:35:27;6.47;;;3.67;;
14770;SDS011;7477;45.222;5.688;2023-06-01T20:38:47;7.28;;;4.43;;
14770;SDS011;7477;45.222;5.688;2023-06-01T20:42:06;5.43;;;3.55;;
14770;SDS011;7477;45.222;5.688;2023-06-01T20:45:59;3.95;;;3.20;;
14770;SDS011;7477;45.222;5.688;2023-06-01T20:49:22;14.10;;;4.53;;
14770;SDS011;7477;45.222;5.688;2023-06-01T20:52:42;10.38;;;3.30;;